Time;durP1;ratioP1;P1;durP2;ratioP2;P2;SDS_P1;SDS_P2;PMS_P1;PMS_P2;Temp;Humidity;BMP_temperature;BMP_pressure;BME280_temperature;BME280_humidity;BME280_pressure;Samples;Min_cycle;Max_cycle;Signal;HPM_P1;HPM_P2
2022/11/26 00:00:45;;;;;;;6.55;2.12;;;9.80;99.90;;;;;;1909297;74;22224;-88
2022/11/26 00:03:36;;;;;;;6.37;2.17;;;9.70;99.90;;;;;;1917544;73;21105;-87
2022/11/26 00:06:31;;;;;;;5.40;1.77;;;9.70;99.90;;;;;;1917676;73;21150;-88
2022/11/26 00:09:24;;;;;;;5.67;2.08;;;9.70;99.90;;;;;;1918284;73;21150;-87
2022/11/26 00:12:19;;;;;;;7.60;2.58;;;9.60;99.90;;;;;;1921373;73;21153;-87
2022/11/26 00:15:16;;;;;;;4.60;1.77;;;9.60;99.90;;;;;;1917130;75;21146;-88
2022/11/26 00:18:07;;;;;;;7.42;2.47;;;9.50;99.90;;;;;;1917005;73;21051;-86
2022/11/26 00:21:00;;;;;;;4.67;1.72;;;9.50;99.90;;;;;;1924421;73;21599;-86
2022/11/26 00:23:53;;;;;;;7.30;1.95;;;9.50;99.90;;;;;;1926604;73;21494;-87
2022/11/26 00:26:45;;;;;;;4.25;1.30;;;9.50;99.90;;;;;;1913239;73;21127;-87
2022/11/26 00:29:36;;;;;;;5.15;1.85;;;9.50;99.90;;;;;;1909718;74;21070;-87
2022/11/26 00:32:28;;;;;;;5.50;2.25;;;9.50;99.90;;;;;;1932000;73;21542;-87
2022/11/26 00:37:59;;;;;;;4.03;2.15;;;9.50;99.90;;;;;;1938362;72;22241;-88
2022/11/26 00:43:30;;;;;;;5.33;1.55;;;9.40;99.90;;;;;;1948643;72;22232;-88
2022/11/26 00:46:22;;;;;;;4.37;2.17;;;9.40;99.90;;;;;;1902640;74;21122;-88
2022/11/26 00:49:14;;;;;;;5.95;2.02;;;9.30;99.90;;;;;;1894283;75;21059;-87
2022/11/26 00:54:47;;;;;;;7.05;2.10;;;9.10;99.90;;;;;;1916169;72;22232;-88
2022/11/26 00:57:39;;;;;;;4.45;1.35;;;9.20;99.90;;;;;;1886024;74;21147;-87
2022/11/26 01:00:34;;;;;;;5.62;2.10;;;9.40;99.90;;;;;;1893910;75;21216;-87
2022/11/26 01:03:28;;;;;;;5.47;1.77;;;9.30;99.90;;;;;;1890861;74;21123;-87
2022/11/26 01:06:23;;;;;;;3.67;1.67;;;9.20;99.90;;;;;;1872204;75;21244;-87
2022/11/26 01:09:18;;;;;;;6.08;2.30;;;9.30;99.90;;;;;;1880142;75;21378;-87
2022/11/26 01:12:13;;;;;;;2.12;1.45;;;9.30;99.90;;;;;;1897147;75;21196;-87
2022/11/26 01:17:44;;;;;;;4.95;1.72;;;9.20;99.90;;;;;;1934677;72;22269;-86
2022/11/26 01:20:35;;;;;;;4.58;1.62;;;9.30;99.90;;;;;;1885523;75;21220;-87
2022/11/26 01:23:26;;;;;;;3.52;1.70;;;9.30;99.90;;;;;;1875440;75;21163;-87
2022/11/26 01:29:04;;;;;;;4.33;1.35;;;9.30;99.90;;;;;;1936607;72;22217;-87
2022/11/26 01:31:56;;;;;;;4.83;2.15;;;9.30;99.90;;;;;;1899922;74;21143;-88
2022/11/26 01:37:26;;;;;;;3.87;2.00;;;9.20;99.90;;;;;;1942312;72;22355;-88
2022/11/26 01:43:06;;;;;;;5.97;2.70;;;9.10;99.90;;;;;;1910575;72;28147;-87
2022/11/26 01:45:58;;;;;;;7.08;2.58;;;9.10;99.90;;;;;;1906970;74;21172;-88
2022/11/26 01:48:50;;;;;;;6.83;2.67;;;8.90;99.90;;;;;;1878800;75;21142;-87
2022/11/26 01:54:26;;;;;;;4.65;2.58;;;8.80;99.90;;;;;;1944933;72;22181;-89
2022/11/26 01:57:20;;;;;;;7.50;1.80;;;8.80;99.90;;;;;;1929193;74;21104;-89
2022/11/26 02:02:52;;;;;;;7.55;2.22;;;8.80;99.90;;;;;;1961952;72;22116;-88
2022/11/26 02:05:47;;;;;;;6.45;2.37;;;8.90;99.90;;;;;;1903808;74;21156;-89
2022/11/26 02:08:38;;;;;;;4.80;2.08;;;8.90;99.90;;;;;;1894730;75;21106;-88
2022/11/26 02:11:30;;;;;;;5.20;2.10;;;8.90;99.90;;;;;;1889016;74;21542;-87
2022/11/26 02:17:18;;;;;;;5.90;2.70;;;8.80;99.90;;;;;;1942752;72;22200;-89
2022/11/26 02:20:33;;;;;;;5.92;2.58;;;8.70;99.90;;;;;;1926193;73;21644;-88
2022/11/26 02:24:14;;;;;;;6.55;2.65;;;8.50;99.90;;;;;;1921420;73;21175;-87
2022/11/26 02:30:11;;;;;;;5.87;2.80;;;8.30;99.90;;;;;;1935695;72;22251;-88
2022/11/26 02:33:06;;;;;;;6.70;2.85;;;8.30;99.90;;;;;;1885073;75;21058;-88
2022/11/26 02:36:02;;;;;;;6.75;3.05;;;8.30;99.90;;;;;;1852598;77;21129;-88
2022/11/26 02:41:40;;;;;;;6.12;2.83;;;8.20;99.90;;;;;;1933856;72;22778;-89
2022/11/26 02:44:34;;;;;;;7.05;2.87;;;8.10;99.90;;;;;;1901019;75;21111;-88
2022/11/26 02:50:14;;;;;;;9.63;3.98;;;8.10;99.90;;;;;;1935466;72;28195;-90
2022/11/26 02:53:07;;;;;;;7.00;2.90;;;8.10;99.90;;;;;;1904622;75;21135;-87
2022/11/26 02:56:03;;;;;;;6.12;2.60;;;8.00;99.90;;;;;;1914584;73;21093;-88
2022/11/26 02:58:56;;;;;;;6.78;3.00;;;8.00;99.90;;;;;;1904352;74;21154;-88
2022/11/26 03:04:31;;;;;;;5.47;2.20;;;7.80;99.90;;;;;;1925838;72;22126;-89
2022/11/26 03:07:24;;;;;;;6.75;2.65;;;7.80;99.90;;;;;;1906503;75;21181;-89
2022/11/26 03:10:19;;;;;;;6.25;2.52;;;7.90;99.90;;;;;;1885148;75;21135;-89
2022/11/26 03:13:09;;;;;;;5.33;2.55;;;7.80;99.90;;;;;;1893602;75;21139;-89
2022/11/26 03:18:51;;;;;;;8.13;1.85;;;7.80;99.90;;;;;;1944504;72;22343;-89
2022/11/26 03:21:44;;;;;;;4.70;1.77;;;7.80;99.90;;;;;;1920812;73;21103;-88
2022/11/26 03:24:36;;;;;;;5.05;1.85;;;7.90;99.90;;;;;;1923273;73;21137;-88
2022/11/26 03:27:28;;;;;;;6.03;2.00;;;7.90;99.90;;;;;;1931312;73;21153;-87
2022/11/26 03:32:58;;;;;;;5.65;1.75;;;7.90;99.90;;;;;;1952759;72;22234;-89
2022/11/26 03:35:50;;;;;;;4.87;2.10;;;7.80;99.90;;;;;;1919719;73;21091;-90
2022/11/26 03:38:42;;;;;;;4.37;1.70;;;7.70;99.90;;;;;;1939225;73;21086;-88
2022/11/26 03:41:34;;;;;;;6.10;1.72;;;7.60;99.90;;;;;;1931213;73;21180;-88
2022/11/26 03:44:26;;;;;;;4.83;2.02;;;7.50;99.90;;;;;;1914281;74;21269;-89
2022/11/26 03:47:18;;;;;;;3.52;1.80;;;7.50;99.90;;;;;;1917086;73;21095;-89
2022/11/26 03:50:10;;;;;;;5.10;1.80;;;7.80;99.90;;;;;;1920087;73;21126;-88
2022/11/26 03:53:04;;;;;;;5.30;1.65;;;7.80;99.90;;;;;;1917040;73;21090;-87
2022/11/26 03:55:56;;;;;;;5.40;2.30;;;7.60;99.90;;;;;;1916979;73;21106;-87
2022/11/26 03:58:48;;;;;;;4.22;1.87;;;7.60;99.90;;;;;;1915667;74;21090;-87
2022/11/26 04:01:40;;;;;;;5.83;1.72;;;7.40;99.90;;;;;;1938341;73;21217;-88
2022/11/26 04:04:31;;;;;;;5.72;1.47;;;7.40;99.90;;;;;;1916909;73;21093;-88
2022/11/26 04:07:23;;;;;;;6.58;1.87;;;7.30;99.90;;;;;;1936682;73;21051;-87
2022/11/26 04:10:14;;;;;;;7.53;1.82;;;7.30;99.90;;;;;;1916908;73;21105;-87
2022/11/26 04:13:06;;;;;;;5.45;1.70;;;7.20;99.90;;;;;;1917125;75;21643;-87
2022/11/26 04:15:58;;;;;;;3.75;1.65;;;7.20;99.90;;;;;;1919437;73;21062;-89
2022/11/26 04:18:50;;;;;;;5.60;1.87;;;7.20;99.90;;;;;;1918075;73;21116;-88
2022/11/26 04:21:41;;;;;;;5.33;2.08;;;7.20;99.90;;;;;;1918091;73;21086;-88
2022/11/26 04:24:33;;;;;;;4.95;1.90;;;7.20;99.90;;;;;;1917196;73;21093;-88
2022/11/26 04:27:24;;;;;;;9.50;2.00;;;7.20;99.90;;;;;;1935785;73;21089;-88
2022/11/26 04:30:18;;;;;;;6.37;2.12;;;7.10;99.90;;;;;;1923002;73;21117;-87
2022/11/26 04:33:10;;;;;;;5.40;1.90;;;7.00;99.90;;;;;;1932588;73;21547;-88
2022/11/26 04:36:02;;;;;;;3.10;1.52;;;7.00;99.90;;;;;;1933389;73;21086;-87
2022/11/26 04:38:53;;;;;;;5.60;1.80;;;7.10;99.90;;;;;;1916722;73;21051;-89
2022/11/26 04:41:45;;;;;;;5.10;1.50;;;7.10;99.90;;;;;;1913730;74;21082;-88
2022/11/26 04:44:37;;;;;;;4.58;1.80;;;7.10;99.90;;;;;;1921038;74;21095;-87
2022/11/26 04:47:29;;;;;;;4.50;1.60;;;7.00;99.90;;;;;;1925672;74;21090;-88
2022/11/26 04:53:04;;;;;;;5.67;2.12;;;7.00;99.90;;;;;;1933429;72;22167;-88
2022/11/26 04:55:55;;;;;;;4.12;1.70;;;7.00;99.90;;;;;;1902853;75;21106;-88
2022/11/26 04:58:46;;;;;;;6.30;1.80;;;7.00;99.90;;;;;;1887156;75;21125;-88
2022/11/26 05:01:38;;;;;;;7.83;2.33;;;7.00;99.90;;;;;;1908264;75;21158;-88
2022/11/26 05:04:30;;;;;;;4.35;1.50;;;7.00;99.90;;;;;;1887206;75;21091;-88
2022/11/26 05:12:47;;;;;;;3.80;2.05;;;7.00;99.90;;;;;;1929913;72;28034;-89
2022/11/26 05:15:38;;;;;;;6.28;2.40;;;7.20;99.90;;;;;;1905566;74;21645;-88
2022/11/26 05:18:30;;;;;;;5.92;2.00;;;7.10;99.90;;;;;;1898949;75;21163;-88
2022/11/26 05:21:22;;;;;;;6.95;2.83;;;6.80;99.90;;;;;;1914728;75;21188;-88
2022/11/26 05:24:13;;;;;;;5.75;2.00;;;6.70;99.90;;;;;;1903853;75;21711;-87
2022/11/26 05:27:06;;;;;;;4.05;1.52;;;6.60;99.90;;;;;;1901591;75;21152;-88
2022/11/26 05:29:59;;;;;;;3.15;1.30;;;6.60;99.90;;;;;;1885373;75;21376;-87
2022/11/26 05:32:50;;;;;;;5.20;1.60;;;6.80;99.90;;;;;;1885984;75;21180;-88
2022/11/26 05:35:42;;;;;;;5.30;1.55;;;6.80;99.90;;;;;;1886973;75;21161;-88
2022/11/26 05:38:34;;;;;;;7.78;2.37;;;7.00;99.90;;;;;;1900810;75;21055;-88
2022/11/26 05:41:25;;;;;;;5.08;1.67;;;7.00;99.90;;;;;;1892669;75;21640;-88
2022/11/26 05:44:16;;;;;;;4.62;1.90;;;7.00;99.90;;;;;;1907485;75;21086;-88
2022/11/26 05:47:08;;;;;;;5.22;1.57;;;7.00;99.90;;;;;;1897302;75;21055;-88
2022/11/26 05:50:00;;;;;;;7.35;2.45;;;6.90;99.90;;;;;;1904511;75;21127;-88
2022/11/26 05:52:51;;;;;;;7.53;1.70;;;6.90;99.90;;;;;;1883165;75;21177;-88
2022/11/26 05:58:29;;;;;;;4.40;1.50;;;6.80;99.90;;;;;;1945208;72;22257;-89
2022/11/26 06:01:20;;;;;;;6.65;1.92;;;6.80;99.90;;;;;;1885939;75;21103;-90
2022/11/26 06:04:12;;;;;;;4.12;1.65;;;6.80;99.90;;;;;;1882387;75;21162;-86
2022/11/26 06:07:04;;;;;;;5.00;1.32;;;6.70;99.90;;;;;;1904256;75;21103;-87
2022/11/26 06:12:40;;;;;;;5.42;2.12;;;6.60;99.90;;;;;;1934980;72;22150;-88
2022/11/26 06:15:31;;;;;;;3.30;1.80;;;6.60;99.90;;;;;;1908718;75;21091;-88
2022/11/26 06:18:22;;;;;;;7.45;1.72;;;6.60;99.90;;;;;;1898166;75;21051;-88
2022/11/26 06:23:59;;;;;;;5.17;1.85;;;6.60;99.90;;;;;;1947687;72;22920;-88
2022/11/26 06:26:51;;;;;;;7.05;2.10;;;6.50;99.90;;;;;;1927465;74;21736;-87
2022/11/26 06:29:43;;;;;;;5.10;1.80;;;6.60;99.90;;;;;;1904299;74;21066;-88
2022/11/26 06:32:36;;;;;;;4.37;2.15;;;6.50;99.90;;;;;;1922227;74;21131;-88
2022/11/26 06:35:28;;;;;;;3.40;1.65;;;6.40;99.90;;;;;;1910710;74;21047;-88
2022/11/26 06:38:19;;;;;;;6.28;1.47;;;6.40;99.90;;;;;;1909066;74;21107;-88
2022/11/26 06:41:11;;;;;;;4.40;1.92;;;6.50;99.90;;;;;;1907865;74;21106;-88
2022/11/26 06:44:03;;;;;;;4.78;1.98;;;6.40;99.90;;;;;;1905006;74;21087;-88
2022/11/26 06:46:54;;;;;;;5.87;1.82;;;6.40;99.90;;;;;;1927094;74;21114;-88
2022/11/26 06:49:47;;;;;;;5.75;1.72;;;6.40;99.90;;;;;;1907333;74;21561;-87
2022/11/26 06:52:42;;;;;;;4.05;2.00;;;6.50;99.90;;;;;;1904224;75;21095;-87
2022/11/26 06:55:34;;;;;;;3.65;1.47;;;6.40;99.90;;;;;;1913183;74;21184;-88
2022/11/26 07:01:12;;;;;;;5.35;2.00;;;6.20;99.90;;;;;;1950726;72;22157;-89
2022/11/26 07:04:03;;;;;;;7.03;3.22;;;6.20;99.90;;;;;;1924087;73;21057;-88
2022/11/26 07:06:55;;;;;;;5.22;2.85;;;6.10;99.90;;;;;;1917280;73;21118;-88
2022/11/26 07:09:47;;;;;;;7.70;2.00;;;6.00;99.90;;;;;;1918579;73;21136;-88
2022/11/26 07:15:18;;;;;;;4.70;1.90;;;6.00;99.90;;;;;;1933591;72;22175;-86
2022/11/26 07:18:12;;;;;;;6.15;2.60;;;6.20;99.90;;;;;;1891628;75;21071;-88
2022/11/26 07:23:48;;;;;;;7.40;2.70;;;6.30;99.90;;;;;;1933849;72;27907;-89
2022/11/26 07:26:40;;;;;;;5.87;2.00;;;6.50;99.90;;;;;;1903801;75;21132;-89
2022/11/26 07:29:32;;;;;;;6.10;2.00;;;6.50;99.90;;;;;;1921001;74;21176;-88
2022/11/26 07:37:48;;;;;;;5.25;2.12;;;6.40;99.90;;;;;;1938579;72;22276;-89
2022/11/26 07:40:39;;;;;;;5.85;2.20;;;6.40;99.90;;;;;;1886638;74;21118;-88
2022/11/26 07:43:30;;;;;;;5.05;2.50;;;6.50;99.90;;;;;;1888496;75;21122;-88
2022/11/26 07:46:25;;;;;;;4.12;2.25;;;6.50;99.90;;;;;;1886295;75;21086;-87
2022/11/26 07:49:17;;;;;;;6.28;2.22;;;6.40;99.90;;;;;;1901918;75;21120;-88
2022/11/26 07:52:09;;;;;;;6.37;2.25;;;6.50;99.90;;;;;;1886691;75;21051;-89
2022/11/26 07:55:00;;;;;;;6.78;2.75;;;6.50;99.90;;;;;;1885166;75;21153;-88
2022/11/26 08:00:33;;;;;;;12.23;5.55;;;6.50;99.90;;;;;;1938166;72;22257;-89
2022/11/26 08:03:24;;;;;;;4.30;2.02;;;6.50;99.90;;;;;;1872851;75;21188;-89
2022/11/26 08:06:18;;;;;;;8.83;3.77;;;6.60;99.90;;;;;;1887496;75;21091;-89
2022/11/26 08:09:12;;;;;;;6.70;3.70;;;6.70;99.90;;;;;;1891209;75;21102;-87
2022/11/26 08:12:05;;;;;;;6.10;2.75;;;6.80;99.90;;;;;;1875908;75;21098;-88
2022/11/26 08:18:10;;;;;;;5.67;2.60;;;6.90;99.90;;;;;;2074180;68;22123;-79
2022/11/26 08:23:47;;;;;;;4.42;2.40;;;7.20;99.90;;;;;;1944180;72;22200;-78
2022/11/26 08:26:38;;;;;;;4.42;2.70;;;7.30;99.90;;;;;;1919501;73;21191;-79
2022/11/26 08:29:31;;;;;;;6.25;3.02;;;7.50;99.90;;;;;;1916806;75;21614;-79
2022/11/26 08:32:23;;;;;;;6.05;2.77;;;7.50;99.90;;;;;;1921124;73;21079;-79
2022/11/26 08:35:14;;;;;;;8.38;2.77;;;7.60;99.90;;;;;;1929505;73;21135;-78
2022/11/26 08:38:06;;;;;;;5.62;2.65;;;7.60;99.90;;;;;;1925607;73;21183;-78
2022/11/26 08:43:36;;;;;;;6.78;2.65;;;7.80;99.90;;;;;;1956824;72;22206;-79
2022/11/26 08:46:29;;;;;;;6.37;2.60;;;7.90;99.90;;;;;;1917548;73;21322;-78
2022/11/26 08:49:21;;;;;;;6.97;2.95;;;7.90;99.90;;;;;;1915946;73;21119;-80
2022/11/26 08:54:51;;;;;;;5.65;2.40;;;8.00;99.90;;;;;;1943685;72;22219;-79
2022/11/26 08:57:43;;;;;;;8.03;3.08;;;7.90;99.90;;;;;;1907316;75;21242;-79
2022/11/26 09:00:34;;;;;;;5.78;2.70;;;8.00;99.90;;;;;;1906355;74;21097;-78
2022/11/26 09:03:26;;;;;;;5.80;2.60;;;8.00;99.90;;;;;;1903770;75;21090;-78
2022/11/26 09:06:18;;;;;;;8.68;3.95;;;8.30;99.90;;;;;;1913851;74;21086;-78
2022/11/26 09:09:13;;;;;;;9.20;3.92;;;8.10;99.90;;;;;;1899481;75;21078;-78
2022/11/26 09:12:06;;;;;;;6.75;2.60;;;8.00;99.90;;;;;;1910154;75;21102;-78
2022/11/26 09:17:36;;;;;;;6.30;2.90;;;8.00;99.90;;;;;;1934755;72;22282;-79
2022/11/26 09:20:27;;;;;;;6.30;3.20;;;8.10;99.90;;;;;;1905958;75;21118;-79
2022/11/26 09:23:19;;;;;;;7.28;2.87;;;8.00;99.90;;;;;;1903044;75;21079;-78
2022/11/26 09:26:11;;;;;;;6.33;3.87;;;7.90;99.90;;;;;;1897447;75;21106;-77
2022/11/26 09:29:03;;;;;;;4.87;3.17;;;7.90;99.90;;;;;;1916530;75;21145;-79
2022/11/26 09:31:55;;;;;;;8.23;4.05;;;7.80;99.90;;;;;;1908521;75;21082;-79
2022/11/26 09:34:47;;;;;;;6.92;3.30;;;7.80;99.90;;;;;;1906564;75;21183;-78
2022/11/26 09:37:39;;;;;;;7.60;3.60;;;7.80;99.90;;;;;;1900749;75;21093;-78
2022/11/26 09:43:14;;;;;;;5.08;2.85;;;7.90;99.90;;;;;;1945479;72;22157;-79
2022/11/26 09:46:07;;;;;;;5.25;2.20;;;8.00;99.90;;;;;;1892675;75;21105;-78
2022/11/26 09:49:01;;;;;;;6.60;2.83;;;8.00;99.90;;;;;;1883626;75;21165;-79
2022/11/26 09:51:57;;;;;;;9.05;3.50;;;8.10;99.90;;;;;;1899363;75;21130;-78
2022/11/26 09:54:50;;;;;;;5.50;3.02;;;8.20;99.90;;;;;;1895109;75;21201;-78
2022/11/26 09:57:44;;;;;;;6.28;3.12;;;8.30;99.90;;;;;;1888057;74;21084;-82
2022/11/26 10:00:39;;;;;;;9.20;4.40;;;8.30;99.90;;;;;;1892249;75;21164;-81
2022/11/26 10:03:34;;;;;;;8.83;3.55;;;8.40;99.90;;;;;;1903497;75;21412;-82
2022/11/26 10:06:32;;;;;;;6.08;2.58;;;8.50;99.90;;;;;;1900548;75;21111;-81
2022/11/26 10:09:34;;;;;;;6.97;2.20;;;8.60;99.90;;;;;;1881104;75;21062;-83
2022/11/26 10:12:34;;;;;;;6.30;1.90;;;8.60;99.90;;;;;;1894857;75;21129;-80
2022/11/26 10:15:31;;;;;;;6.05;2.33;;;8.70;99.90;;;;;;1887455;75;21255;-79
2022/11/26 10:18:27;;;;;;;5.33;2.08;;;8.80;99.90;;;;;;1894954;75;21123;-82
2022/11/26 10:21:23;;;;;;;4.22;2.02;;;8.80;99.90;;;;;;1910865;75;21086;-80
2022/11/26 10:27:01;;;;;;;4.10;2.00;;;9.00;99.90;;;;;;1927000;72;22204;-81
2022/11/26 10:29:55;;;;;;;4.37;1.85;;;9.00;99.90;;;;;;1886892;75;21102;-79
2022/11/26 10:35:30;;;;;;;6.97;2.20;;;9.20;99.90;;;;;;1948412;72;22134;-81
2022/11/26 10:38:23;;;;;;;6.22;2.27;;;9.40;99.90;;;;;;1904462;74;21122;-81
2022/11/26 10:41:16;;;;;;;8.03;2.08;;;9.50;99.90;;;;;;1907486;75;21055;-79
2022/11/26 10:44:32;;;;;;;4.75;2.27;;;9.50;99.90;;;;;;1908253;75;21164;-80
2022/11/26 10:47:27;;;;;;;7.10;2.05;;;9.70;99.90;;;;;;1909109;75;21668;-81
2022/11/26 10:53:20;;;;;;;6.42;2.12;;;9.90;99.90;;;;;;1930652;72;27962;-81
2022/11/26 10:58:55;;;;;;;4.95;1.70;;;10.30;99.90;;;;;;1948100;72;22237;-81
2022/11/26 11:01:48;;;;;;;6.33;1.80;;;10.40;99.90;;;;;;1910252;74;21084;-81
2022/11/26 11:04:43;;;;;;;4.00;1.40;;;10.50;99.90;;;;;;1923806;74;21184;-80
2022/11/26 11:07:42;;;;;;;5.60;1.70;;;10.50;99.90;;;;;;1920296;74;21115;-80
2022/11/26 11:13:14;;;;;;;6.15;1.60;;;10.70;99.90;;;;;;1947729;72;22210;-81
2022/11/26 11:16:06;;;;;;;5.65;1.77;;;10.70;99.90;;;;;;1916483;73;21176;-80
2022/11/26 11:19:00;;;;;;;3.95;1.60;;;10.70;99.90;;;;;;1917751;73;21111;-80
2022/11/26 11:21:52;;;;;;;6.80;1.77;;;10.70;99.90;;;;;;1936508;73;21123;-80
2022/11/26 11:27:28;;;;;;;4.35;1.22;;;10.90;99.90;;;;;;1936483;72;22206;-81
2022/11/26 11:33:15;;;;;;;4.03;1.60;;;11.10;99.90;;;;;;1945409;72;22275;-81
2022/11/26 11:38:51;;;;;;;3.37;1.20;;;11.20;99.90;;;;;;1944546;72;22533;-79
2022/11/26 11:41:45;;;;;;;4.00;1.47;;;11.30;99.90;;;;;;1880068;75;21106;-82
2022/11/26 11:44:41;;;;;;;5.80;1.40;;;11.40;99.90;;;;;;1880019;75;21130;-81
2022/11/26 11:53:14;;;;;;;5.15;1.30;;;11.30;99.90;;;;;;1941433;72;22712;-81
2022/11/26 11:56:13;;;;;;;4.03;1.40;;;11.20;99.90;;;;;;1910628;75;21212;-80
2022/11/26 11:59:21;;;;;;;4.67;2.08;;;11.20;99.90;;;;;;1910979;75;21125;-80
2022/11/26 12:02:24;;;;;;;3.62;1.42;;;11.10;99.90;;;;;;1910640;75;21159;-82
2022/11/26 12:05:45;;;;;;;3.75;1.30;;;11.20;99.90;;;;;;1905653;75;21164;-80
2022/11/26 12:08:44;;;;;;;4.08;1.20;;;11.20;99.90;;;;;;1883804;75;21101;-80
2022/11/26 12:11:46;;;;;;;4.05;1.32;;;11.30;99.90;;;;;;1885569;75;21877;-80
2022/11/26 12:14:40;;;;;;;4.42;1.35;;;11.40;99.90;;;;;;1884995;75;21598;-80
2022/11/26 12:17:36;;;;;;;3.75;1.40;;;11.50;99.90;;;;;;1909173;75;21101;-80
2022/11/26 12:20:32;;;;;;;3.55;1.50;;;11.50;99.90;;;;;;1887827;75;21133;-80
2022/11/26 12:23:30;;;;;;;2.90;1.30;;;11.40;99.90;;;;;;1900109;75;21055;-80
2022/11/26 12:29:04;;;;;;;4.00;1.30;;;11.50;99.90;;;;;;1932087;72;22322;-82
2022/11/26 12:31:58;;;;;;;3.90;1.32;;;11.40;99.90;;;;;;1907122;75;21172;-81
2022/11/26 12:34:52;;;;;;;3.40;1.32;;;11.50;99.90;;;;;;1890609;75;21091;-80
2022/11/26 12:37:45;;;;;;;4.67;1.60;;;11.60;99.90;;;;;;1908663;75;21098;-80
2022/11/26 12:43:18;;;;;;;5.62;2.10;;;11.80;99.90;;;;;;1947666;72;22361;-82
2022/11/26 12:46:13;;;;;;;3.80;1.72;;;11.90;99.90;;;;;;1905682;74;21059;-81
2022/11/26 12:49:09;;;;;;;2.58;1.50;;;12.00;99.90;;;;;;1883230;75;21150;-80
2022/11/26 12:52:06;;;;;;;5.17;2.10;;;11.90;99.90;;;;;;1895211;75;21156;-80
2022/11/26 12:57:44;;;;;;;3.75;1.42;;;12.00;99.90;;;;;;1952310;72;22179;-81
2022/11/26 13:03:17;;;;;;;5.05;1.55;;;12.00;99.90;;;;;;1962614;72;22301;-81
2022/11/26 13:06:14;;;;;;;3.83;1.70;;;11.90;99.90;;;;;;1922091;73;21157;-81
2022/11/26 13:09:10;;;;;;;5.28;1.60;;;11.90;99.90;;;;;;1912146;73;21117;-80
2022/11/26 13:12:07;;;;;;;2.80;1.25;;;11.90;99.90;;;;;;1914379;73;21087;-81
2022/11/26 13:17:41;;;;;;;3.55;1.20;;;11.70;99.90;;;;;;1939816;72;22176;-82
2022/11/26 13:20:56;;;;;;;5.50;1.30;;;11.60;99.90;;;;;;1907734;73;21078;-81
2022/11/26 13:27:08;;;;;;;4.50;1.20;;;11.70;99.90;;;;;;1927341;72;22736;-81
2022/11/26 13:30:16;;;;;;;3.35;1.57;;;11.70;99.90;;;;;;1887206;75;21721;-80
2022/11/26 13:33:28;;;;;;;5.08;1.42;;;11.80;99.90;;;;;;1900013;75;21126;-80
2022/11/26 13:36:48;;;;;;;4.72;1.57;;;11.70;99.90;;;;;;1878697;75;21173;-80
2022/11/26 13:40:07;;;;;;;4.25;1.20;;;11.80;99.90;;;;;;1868789;75;21059;-80
2022/11/26 13:43:52;;;;;;;2.55;1.10;;;11.90;99.90;;;;;;1880361;75;21071;-80
2022/11/26 13:49:24;;;;;;;2.85;1.20;;;12.10;99.90;;;;;;1942767;72;22177;-81
2022/11/26 13:55:01;;;;;;;2.08;1.00;;;12.00;99.90;;;;;;1938094;72;22283;-81
2022/11/26 13:57:56;;;;;;;3.30;1.07;;;12.00;99.90;;;;;;1887186;74;21596;-80
2022/11/26 14:00:47;;;;;;;6.65;1.37;;;12.00;99.90;;;;;;1902127;75;21093;-81
2022/11/26 14:03:47;;;;;;;3.77;1.70;;;12.10;99.90;;;;;;1883839;75;21102;-80
2022/11/26 14:06:40;;;;;;;4.05;2.20;;;12.20;99.90;;;;;;1898377;75;21231;-80
2022/11/26 14:13:14;;;;;;;6.40;2.55;;;12.30;99.90;;;;;;1924316;72;22205;-81
2022/11/26 14:18:59;;;;;;;5.20;2.42;;;12.30;99.90;;;;;;1946984;72;22178;-81
2022/11/26 14:22:02;;;;;;;4.55;2.05;;;12.40;99.90;;;;;;1917442;73;21182;-81
2022/11/26 14:27:39;;;;;;;4.83;1.80;;;12.20;99.90;;;;;;1930812;72;22347;-81
2022/11/26 14:33:17;;;;;;;4.35;1.30;;;12.10;99.90;;;;;;1934665;72;22153;-79
2022/11/26 14:36:22;;;;;;;3.58;1.07;;;12.00;99.90;;;;;;1895490;75;21245;-80
2022/11/26 14:39:15;;;;;;;2.85;1.35;;;11.80;99.90;;;;;;1886510;75;21135;-80
2022/11/26 14:42:10;;;;;;;2.75;1.07;;;11.60;99.90;;;;;;1898034;75;21398;-80
2022/11/26 14:47:44;;;;;;;4.25;1.40;;;11.40;99.90;;;;;;1950385;72;22226;-82
2022/11/26 14:53:14;;;;;;;4.80;1.57;;;11.20;99.90;;;;;;1960814;72;22260;-81
2022/11/26 14:56:09;;;;;;;3.95;1.52;;;11.20;99.90;;;;;;1926596;73;21145;-80
2022/11/26 14:59:02;;;;;;;4.67;1.62;;;11.20;99.90;;;;;;1918180;73;21180;-80
2022/11/26 15:01:53;;;;;;;3.08;1.90;;;11.10;99.90;;;;;;1918692;73;21089;-80
2022/11/26 15:04:46;;;;;;;5.50;1.80;;;11.00;99.90;;;;;;1916149;73;21176;-80
2022/11/26 15:07:38;;;;;;;4.28;1.90;;;11.00;99.90;;;;;;1935518;73;21638;-80
2022/11/26 15:13:14;;;;;;;3.72;1.85;;;10.90;99.90;;;;;;1936420;72;22343;-81
2022/11/26 15:18:46;;;;;;;5.50;2.83;;;10.80;99.90;;;;;;1931851;72;22224;-81
2022/11/26 15:24:18;;;;;;;4.85;2.65;;;10.70;99.90;;;;;;1946512;72;22294;-81
2022/11/26 15:29:51;;;;;;;4.95;2.95;;;10.50;99.90;;;;;;1947199;72;22714;-81
2022/11/26 15:32:42;;;;;;;6.05;3.20;;;10.40;99.90;;;;;;1883606;75;21138;-80
2022/11/26 15:35:35;;;;;;;5.95;3.17;;;10.20;99.90;;;;;;1883817;75;21648;-81
2022/11/26 15:38:28;;;;;;;5.50;3.52;;;10.10;99.90;;;;;;1912545;75;21086;-82
2022/11/26 15:41:22;;;;;;;7.92;3.70;;;10.00;99.90;;;;;;1914540;75;21611;-81
2022/11/26 15:44:20;;;;;;;5.37;3.45;;;9.90;99.90;;;;;;1902934;75;21127;-81
2022/11/26 15:47:15;;;;;;;6.40;3.47;;;9.80;99.90;;;;;;1901476;75;21105;-81
2022/11/26 15:50:13;;;;;;;5.30;3.10;;;9.70;99.90;;;;;;1895223;75;21109;-80
2022/11/26 15:53:09;;;;;;;7.03;4.00;;;9.60;99.90;;;;;;1909404;75;21195;-81
2022/11/26 15:56:01;;;;;;;5.15;3.30;;;9.60;99.90;;;;;;1880060;75;21164;-81
2022/11/26 15:58:56;;;;;;;5.08;3.55;;;9.40;99.90;;;;;;1895781;75;21168;-82
2022/11/26 16:01:48;;;;;;;6.30;3.65;;;9.30;99.90;;;;;;1883457;75;21111;-80
2022/11/26 16:04:44;;;;;;;5.92;3.75;;;9.20;99.90;;;;;;1920329;73;21125;-81
2022/11/26 16:07:35;;;;;;;5.65;3.55;;;9.10;99.90;;;;;;1904381;73;21118;-80
2022/11/26 16:10:34;;;;;;;5.67;3.72;;;9.00;99.90;;;;;;1887216;73;21086;-81
2022/11/26 16:13:27;;;;;;;5.53;3.58;;;9.00;99.90;;;;;;1916401;75;21148;-80
2022/11/26 16:16:21;;;;;;;5.10;3.55;;;8.80;99.90;;;;;;1901041;75;21218;-80
2022/11/26 16:19:16;;;;;;;7.10;3.77;;;8.80;99.90;;;;;;1883912;76;21105;-82
2022/11/26 16:22:09;;;;;;;6.83;4.05;;;8.70;99.90;;;;;;1905625;75;21130;-81
2022/11/26 16:25:07;;;;;;;7.37;3.87;;;8.70;99.90;;;;;;1899365;73;21171;-80
2022/11/26 16:28:07;;;;;;;8.57;4.10;;;8.70;99.90;;;;;;1884267;76;21180;-82
2022/11/26 16:30:58;;;;;;;5.78;4.22;;;8.70;99.90;;;;;;1901286;75;21159;-82
2022/11/26 16:33:50;;;;;;;7.72;4.80;;;8.70;99.90;;;;;;1896105;75;21083;-81
2022/11/26 16:36:43;;;;;;;8.50;5.33;;;8.60;99.90;;;;;;1894820;75;21191;-81
2022/11/26 16:39:35;;;;;;;9.10;5.55;;;8.60;99.90;;;;;;1897265;75;21474;-80
2022/11/26 16:42:30;;;;;;;8.25;5.55;;;8.70;99.90;;;;;;1902667;75;21102;-80
2022/11/26 16:45:22;;;;;;;8.08;5.87;;;8.70;99.90;;;;;;1883047;76;21139;-80
2022/11/26 16:48:19;;;;;;;7.60;5.17;;;8.70;99.90;;;;;;1905083;75;21166;-79
2022/11/26 16:51:10;;;;;;;8.90;5.53;;;8.80;99.90;;;;;;1889172;75;21093;-80
2022/11/26 16:54:02;;;;;;;9.28;5.50;;;8.80;99.90;;;;;;1895107;75;21144;-80
2022/11/26 16:56:53;;;;;;;9.03;5.30;;;8.80;99.90;;;;;;1900247;75;21095;-80
2022/11/26 16:59:49;;;;;;;8.23;5.33;;;8.80;99.90;;;;;;1903622;75;21205;-80
2022/11/26 17:02:41;;;;;;;7.50;5.10;;;8.80;99.90;;;;;;1883386;75;21098;-80
2022/11/26 17:05:32;;;;;;;11.12;5.62;;;8.90;99.90;;;;;;1931850;73;21156;-80
2022/11/26 17:08:24;;;;;;;11.30;5.53;;;8.90;99.90;;;;;;1908903;75;21118;-80
2022/11/26 17:11:15;;;;;;;6.78;5.50;;;9.00;99.90;;;;;;1895976;75;21150;-80
2022/11/26 17:14:09;;;;;;;7.60;5.28;;;9.10;99.90;;;;;;1893981;75;21102;-80
2022/11/26 17:17:02;;;;;;;9.85;5.45;;;9.10;99.90;;;;;;1891047;75;21191;-80
2022/11/26 17:19:53;;;;;;;10.58;6.80;;;9.20;99.90;;;;;;1901074;75;21087;-80
2022/11/26 17:22:45;;;;;;;11.90;9.45;;;9.20;99.90;;;;;;1898411;75;21090;-80
2022/11/26 17:25:36;;;;;;;10.63;7.53;;;9.20;99.90;;;;;;1894189;75;21196;-80
2022/11/26 17:28:28;;;;;;;7.47;5.87;;;9.30;99.90;;;;;;1894010;75;21582;-80
2022/11/26 17:31:20;;;;;;;10.32;4.70;;;9.20;99.90;;;;;;1884414;74;21115;-80
2022/11/26 17:34:11;;;;;;;9.43;5.08;;;9.40;99.90;;;;;;1899649;75;21168;-81
2022/11/26 17:37:03;;;;;;;7.08;4.95;;;9.40;99.90;;;;;;1894370;75;21159;-81
2022/11/26 17:39:54;;;;;;;8.63;4.70;;;9.40;99.90;;;;;;1894081;75;21186;-81
2022/11/26 17:42:46;;;;;;;7.22;5.10;;;9.40;99.90;;;;;;1882112;75;21064;-79
2022/11/26 17:45:37;;;;;;;8.78;4.87;;;9.40;99.90;;;;;;1898957;75;21110;-80
2022/11/26 17:48:29;;;;;;;8.33;4.97;;;9.50;99.90;;;;;;1883361;75;21132;-80
2022/11/26 17:51:20;;;;;;;7.67;4.90;;;9.50;99.90;;;;;;1904919;75;21052;-80
2022/11/26 17:54:11;;;;;;;10.20;5.05;;;9.40;99.90;;;;;;1890758;74;21114;-80
2022/11/26 17:57:03;;;;;;;8.53;4.58;;;9.40;99.90;;;;;;1884896;75;21108;-80
2022/11/26 17:59:54;;;;;;;7.55;5.03;;;9.40;99.90;;;;;;1896393;75;21203;-80
2022/11/26 18:02:45;;;;;;;10.13;4.45;;;9.30;99.90;;;;;;1873623;75;21147;-80
2022/11/26 18:05:37;;;;;;;8.33;4.10;;;9.30;99.90;;;;;;1892552;75;21135;-80